createdAt,value
2023-02-06T00:01:17.987Z,6.63
2023-02-06T00:03:44.579Z,5.47
2023-02-06T00:06:12.624Z,5.53
2023-02-06T00:08:39.168Z,5.53
2023-02-06T00:11:08.262Z,5.40
2023-02-06T00:13:36.125Z,4.85
2023-02-06T00:16:16.137Z,5.57
2023-02-06T00:18:42.766Z,5.57
2023-02-06T00:21:09.331Z,5.43
2023-02-06T00:23:36.062Z,5.68
2023-02-06T00:26:06.768Z,4.75
2023-02-06T00:28:33.934Z,6.13
2023-02-06T00:31:00.735Z,4.65
2023-02-06T00:33:27.434Z,4.72
2023-02-06T00:35:55.609Z,5.55
2023-02-06T00:38:22.195Z,5.13
2023-02-06T00:40:48.725Z,6.00
2023-02-06T00:43:15.222Z,5.20
2023-02-06T00:45:45.958Z,4.97
2023-02-06T00:48:16.558Z,5.15
2023-02-06T00:50:43.465Z,5.25
2023-02-06T00:53:10.172Z,5.03
2023-02-06T00:55:41.147Z,5.15
2023-02-06T00:58:07.782Z,6.57
2023-02-06T01:00:34.542Z,4.78
2023-02-06T01:03:01.193Z,4.60
2023-02-06T01:05:36.041Z,4.03
2023-02-06T01:08:04.442Z,3.97
2023-02-06T01:10:33.170Z,3.33
2023-02-06T01:13:03.884Z,3.53
2023-02-06T01:15:33.799Z,4.38
2023-02-06T01:18:01.572Z,3.85
2023-02-06T01:20:28.054Z,3.67
2023-02-06T01:22:54.590Z,3.72
2023-02-06T01:25:21.158Z,3.65
2023-02-06T01:27:49.585Z,4.47
2023-02-06T01:30:16.188Z,3.50
2023-02-06T01:32:42.974Z,4.65
2023-02-06T01:35:11.304Z,4.63
2023-02-06T01:37:40.431Z,5.30
2023-02-06T01:40:11.917Z,4.43
2023-02-06T01:42:39.037Z,5.80
2023-02-06T01:45:25.794Z,4.03
2023-02-06T01:48:02.156Z,4.13
2023-02-06T01:50:31.672Z,4.18
2023-02-06T01:52:58.357Z,4.93
2023-02-06T01:55:24.916Z,4.55
2023-02-06T01:57:56.154Z,3.85
2023-02-06T02:00:22.739Z,4.68
2023-02-06T02:02:50.244Z,4.47
2023-02-06T02:05:18.356Z,3.72
2023-02-06T02:07:55.015Z,4.97
2023-02-06T02:10:21.587Z,3.55
2023-02-06T02:12:48.231Z,3.03
2023-02-06T02:15:16.198Z,3.42
2023-02-06T02:18:21.576Z,3.67
2023-02-06T02:21:22.511Z,4.95
2023-02-06T02:23:55.532Z,4.25
2023-02-06T02:26:59.404Z,4.60
2023-02-06T02:29:44.205Z,4.07
2023-02-06T02:32:23.183Z,4.47
2023-02-06T02:35:02.866Z,4.45
2023-02-06T02:37:43.587Z,5.10
2023-02-06T02:40:28.556Z,4.82
2023-02-06T02:43:25.416Z,5.25
2023-02-06T02:46:02.561Z,5.18
2023-02-06T02:48:34.252Z,4.05
2023-02-06T02:51:01.907Z,4.03
2023-02-06T02:53:28.589Z,4.47
2023-02-06T02:55:57.523Z,4.90
2023-02-06T02:58:30.213Z,5.18
2023-02-06T03:01:02.533Z,5.80
2023-02-06T03:03:32.545Z,4.88
2023-02-06T03:06:20.816Z,4.82
2023-02-06T03:09:13.025Z,4.95
2023-02-06T03:11:48.708Z,4.55
2023-02-06T03:14:28.047Z,4.50
2023-02-06T03:17:09.614Z,4.72
2023-02-06T03:19:45.695Z,4.82
2023-02-06T03:22:14.838Z,4.13
2023-02-06T03:24:41.316Z,4.32
2023-02-06T03:27:16.722Z,4.28
2023-02-06T03:32:27.715Z,4.55
2023-02-06T03:35:05.250Z,4.03
2023-02-06T03:37:37.647Z,4.40
2023-02-06T03:40:06.237Z,5.55
2023-02-06T03:42:39.545Z,4.13
2023-02-06T03:45:16.895Z,5.72
2023-02-06T03:47:48.771Z,6.00
2023-02-06T03:50:16.075Z,4.85
2023-02-06T03:52:46.438Z,4.78
2023-02-06T03:55:17.998Z,5.32
2023-02-06T03:58:01.292Z,5.60
2023-02-06T04:00:30.858Z,5.03
2023-02-06T04:02:59.369Z,5.18
2023-02-06T04:05:46.611Z,6.03
2023-02-06T04:08:13.207Z,5.43
2023-02-06T04:10:39.842Z,5.20
2023-02-06T04:13:06.420Z,5.55
2023-02-06T04:15:37.641Z,6.05
2023-02-06T04:18:05.876Z,5.50
2023-02-06T04:20:32.991Z,7.05
2023-02-06T04:22:59.605Z,6.53
2023-02-06T04:25:33.881Z,5.63
2023-02-06T04:28:02.989Z,5.28
2023-02-06T04:30:29.597Z,5.30
2023-02-06T04:32:56.290Z,5.40
2023-02-06T04:35:22.876Z,4.63
2023-02-06T04:37:53.128Z,4.65
2023-02-06T04:40:19.733Z,4.75
2023-02-06T04:42:46.631Z,4.90
2023-02-06T04:45:13.368Z,5.10
2023-02-06T04:47:43.496Z,5.57
2023-02-06T04:50:10.563Z,4.32
2023-02-06T04:52:37.090Z,4.63
2023-02-06T04:55:03.732Z,3.78
2023-02-06T04:57:34.770Z,4.15
2023-02-06T05:00:01.443Z,3.58
2023-02-06T05:02:27.952Z,3.17
2023-02-06T05:04:54.566Z,2.85
2023-02-06T05:07:25.957Z,3.67
2023-02-06T05:09:53.576Z,3.33
2023-02-06T05:12:20.123Z,3.30
2023-02-06T05:14:46.731Z,4.13
2023-02-06T05:17:16.543Z,4.10
2023-02-06T05:19:43.182Z,3.58
2023-02-06T05:22:09.732Z,4.00
2023-02-06T05:24:36.247Z,3.45
2023-02-06T05:27:07.023Z,4.68
2023-02-06T05:29:33.515Z,4.25
2023-02-06T05:32:00.017Z,3.85
2023-02-06T05:34:26.798Z,3.50
2023-02-06T05:36:57.297Z,3.72
2023-02-06T05:39:23.863Z,3.33
2023-02-06T05:41:50.486Z,3.60
2023-02-06T05:44:17.095Z,4.47
2023-02-06T05:46:48.267Z,4.75
2023-02-06T05:49:15.270Z,5.07
2023-02-06T05:51:41.807Z,4.20
2023-02-06T05:54:08.359Z,5.65
2023-02-06T05:56:38.899Z,5.45
2023-02-06T05:59:05.502Z,5.97
2023-02-06T06:01:32.060Z,5.60
2023-02-06T06:03:58.927Z,6.68
2023-02-06T06:06:30.166Z,6.57
2023-02-06T06:08:56.697Z,5.53
2023-02-06T06:11:23.598Z,5.93
2023-02-06T06:13:51.538Z,6.20
2023-02-06T06:16:19.451Z,5.57
2023-02-06T06:18:46.011Z,4.93
2023-02-06T06:21:12.786Z,5.57
2023-02-06T06:23:39.430Z,5.95
2023-02-06T06:26:07.376Z,4.55
2023-02-06T06:28:35.893Z,5.22
2023-02-06T06:31:04.495Z,5.22
2023-02-06T06:33:31.195Z,4.88
2023-02-06T06:35:59.567Z,5.15
2023-02-06T06:38:26.410Z,4.65
2023-02-06T06:40:53.475Z,4.60
2023-02-06T06:43:19.999Z,4.60
2023-02-06T06:45:48.435Z,5.15
2023-02-06T06:48:15.078Z,5.05
2023-02-06T06:50:41.619Z,4.85
2023-02-06T06:53:08.247Z,5.25
2023-02-06T06:55:36.716Z,4.72
2023-02-06T06:58:03.486Z,5.72
2023-02-06T07:00:30.018Z,6.38
2023-02-06T07:02:56.709Z,6.75
2023-02-06T07:05:23.491Z,5.05
2023-02-06T07:07:50.142Z,6.72
2023-02-06T07:10:17.148Z,7.25
2023-02-06T07:12:43.831Z,6.25
2023-02-06T07:15:10.970Z,5.60
2023-02-06T07:17:41.575Z,6.43
2023-02-06T07:20:08.683Z,8.05
2023-02-06T07:22:35.220Z,6.93
2023-02-06T07:25:01.857Z,6.07
2023-02-06T07:27:32.669Z,5.68
2023-02-06T07:29:59.815Z,5.88
2023-02-06T07:32:26.966Z,5.55
2023-02-06T07:34:53.643Z,4.90
2023-02-06T07:37:23.260Z,4.40
2023-02-06T07:39:49.766Z,4.70
2023-02-06T07:42:16.274Z,5.32
2023-02-06T07:44:50.894Z,5.10
2023-02-06T07:47:20.011Z,5.68
2023-02-06T07:49:46.795Z,5.07
2023-02-06T07:52:13.481Z,4.57
2023-02-06T07:54:40.211Z,5.80
2023-02-06T07:57:08.416Z,6.30
2023-02-06T07:59:35.098Z,6.65
2023-02-06T08:02:01.625Z,6.18
2023-02-06T08:04:35.002Z,6.47
2023-02-06T08:07:06.927Z,6.05
2023-02-06T08:09:33.548Z,6.50
2023-02-06T08:12:00.225Z,6.93
2023-02-06T08:14:28.461Z,5.88
2023-02-06T08:16:58.154Z,6.78
2023-02-06T08:19:24.994Z,6.32
2023-02-06T08:21:51.589Z,6.38
2023-02-06T08:24:18.092Z,6.38
2023-02-06T08:26:48.687Z,7.88
2023-02-06T08:29:15.306Z,8.18
2023-02-06T08:31:42.517Z,6.22
2023-02-06T08:34:12.473Z,6.05
2023-02-06T08:36:42.638Z,5.75
2023-02-06T08:39:13.823Z,5.93
2023-02-06T08:41:41.826Z,5.30
2023-02-06T08:44:12.945Z,6.45
2023-02-06T08:46:42.688Z,7.13
2023-02-06T08:49:18.218Z,6.35
2023-02-06T08:51:45.209Z,7.05
2023-02-06T08:54:13.876Z,6.65
2023-02-06T08:56:41.357Z,6.78
2023-02-06T08:59:08.184Z,6.63
2023-02-06T09:01:36.712Z,8.13
2023-02-06T09:04:06.841Z,7.97
2023-02-06T09:06:39.795Z,8.57
2023-02-06T09:09:08.553Z,9.85
2023-02-06T09:11:35.500Z,10.48
2023-02-06T09:14:06.007Z,9.55
2023-02-06T09:16:38.193Z,9.50
2023-02-06T09:19:05.339Z,10.05
2023-02-06T09:21:37.835Z,9.90
2023-02-06T09:24:08.939Z,9.95
2023-02-06T09:26:58.383Z,9.13
2023-02-06T09:29:29.250Z,9.52
2023-02-06T09:31:57.707Z,8.60
2023-02-06T09:34:26.016Z,9.40
2023-02-06T09:37:04.035Z,9.20
2023-02-06T09:39:31.800Z,10.52
2023-02-06T09:42:23.757Z,9.48
2023-02-06T09:45:14.222Z,9.40
2023-02-06T09:47:53.722Z,8.35
2023-02-06T09:50:49.482Z,7.90
2023-02-06T09:53:37.089Z,7.22
2023-02-06T09:56:21.284Z,8.43
2023-02-06T09:59:00.086Z,8.93
2023-02-06T10:01:35.120Z,7.72
2023-02-06T10:04:14.530Z,8.23
2023-02-06T10:07:03.513Z,8.23
2023-02-06T10:10:04.381Z,8.02
2023-02-06T10:12:43.138Z,8.40
2023-02-06T10:15:25.707Z,8.35
2023-02-06T10:18:06.052Z,9.95
2023-02-06T10:21:16.039Z,8.40
2023-02-06T10:23:51.539Z,9.13
2023-02-06T10:28:56.385Z,8.90
2023-02-06T10:31:29.471Z,7.47
2023-02-06T10:34:05.364Z,7.70
2023-02-06T10:37:10.274Z,7.30
2023-02-06T10:40:12.770Z,7.57
2023-02-06T10:43:14.201Z,8.05
2023-02-06T10:46:23.059Z,6.57
2023-02-06T10:49:09.338Z,6.00
2023-02-06T10:51:43.665Z,6.72
2023-02-06T10:54:25.055Z,5.88
2023-02-06T10:57:19.126Z,6.32
2023-02-06T10:59:53.587Z,6.65
2023-02-06T11:02:20.698Z,5.57
2023-02-06T11:05:11.512Z,5.70
2023-02-06T11:07:46.405Z,5.97
2023-02-06T11:10:16.358Z,5.45
2023-02-06T11:12:55.071Z,6.07
2023-02-06T11:15:46.253Z,6.75
2023-02-06T11:18:19.595Z,7.15
2023-02-06T11:20:49.562Z,6.20
2023-02-06T11:23:17.957Z,5.10
2023-02-06T11:25:57.969Z,5.35
2023-02-06T11:28:25.050Z,5.25
2023-02-06T11:30:58.598Z,4.43
2023-02-06T11:33:36.290Z,4.95
2023-02-06T11:36:20.001Z,5.07
2023-02-06T11:39:05.547Z,5.57
2023-02-06T11:41:33.622Z,5.60
2023-02-06T11:44:06.593Z,5.05
2023-02-06T11:46:38.827Z,4.88
2023-02-06T11:49:22.363Z,4.65
2023-02-06T11:52:00.023Z,5.47
2023-02-06T11:54:34.532Z,5.22
2023-02-06T11:57:31.685Z,5.20
2023-02-06T12:00:18.528Z,5.82
2023-02-06T12:02:51.777Z,5.72
2023-02-06T12:05:23.050Z,5.10
2023-02-06T12:08:15.065Z,5.40
2023-02-06T12:10:52.948Z,5.13
2023-02-06T12:13:29.222Z,4.93
2023-02-06T12:16:02.316Z,5.70
2023-02-06T12:18:39.903Z,5.30
2023-02-06T12:21:13.322Z,5.40
2023-02-06T12:23:44.032Z,5.68
2023-02-06T12:26:18.383Z,5.43
2023-02-06T12:28:57.845Z,5.67
2023-02-06T12:31:41.843Z,6.45
2023-02-06T12:34:18.577Z,5.18
2023-02-06T12:37:00.391Z,4.25
2023-02-06T12:39:32.153Z,5.30
2023-02-06T12:42:37.837Z,5.15
2023-02-06T12:45:23.386Z,4.32
2023-02-06T12:48:30.302Z,5.03
2023-02-06T12:51:21.577Z,4.72
2023-02-06T12:53:58.850Z,5.35
2023-02-06T12:56:36.557Z,4.20
2023-02-06T12:59:09.483Z,4.20
2023-02-06T13:02:00.972Z,4.80
2023-02-06T13:04:32.524Z,4.57
2023-02-06T13:07:20.266Z,4.57
2023-02-06T13:09:55.422Z,4.40
2023-02-06T13:12:30.450Z,4.35
2023-02-06T13:15:16.940Z,4.93
2023-02-06T13:17:47.576Z,4.25
2023-02-06T13:20:16.554Z,4.53
2023-02-06T13:22:49.522Z,4.63
2023-02-06T13:25:51.940Z,4.10
2023-02-06T13:28:21.747Z,4.97
2023-02-06T13:31:02.757Z,4.15
2023-02-06T13:33:49.619Z,4.40
2023-02-06T13:36:24.771Z,3.70
2023-02-06T13:38:56.724Z,3.72
2023-02-06T13:41:35.110Z,3.10
2023-02-06T13:44:16.198Z,3.67
2023-02-06T13:47:14.079Z,4.15
2023-02-06T13:50:13.280Z,3.50
2023-02-06T13:52:56.592Z,4.05
2023-02-06T13:55:58.160Z,3.97
2023-02-06T13:58:39.282Z,3.80
2023-02-06T14:01:14.381Z,3.47
2023-02-06T14:03:48.074Z,5.40
2023-02-06T14:06:39.611Z,4.43
2023-02-06T14:09:49.228Z,4.70
2023-02-06T14:12:46.576Z,5.18
2023-02-06T14:15:39.379Z,5.43
2023-02-06T14:18:27.685Z,5.05
2023-02-06T14:21:27.313Z,5.60
2023-02-06T14:24:28.004Z,5.97
2023-02-06T14:27:25.321Z,6.53
2023-02-06T14:30:21.361Z,6.32
2023-02-06T14:33:25.777Z,5.72
2023-02-06T14:36:19.081Z,6.70
2023-02-06T14:39:28.025Z,6.60
2023-02-06T14:41:55.365Z,6.47
2023-02-06T14:44:30.818Z,6.78
2023-02-06T14:49:38.213Z,5.25
2023-02-06T14:52:05.864Z,6.00
2023-02-06T14:54:35.208Z,5.68
2023-02-06T14:57:16.449Z,6.05
2023-02-06T15:00:04.772Z,6.03
2023-02-06T15:02:34.762Z,5.72
2023-02-06T15:05:06.267Z,5.00
2023-02-06T15:07:40.994Z,5.85
2023-02-06T15:10:18.326Z,6.00
2023-02-06T15:12:52.407Z,6.60
2023-02-06T15:15:51.860Z,5.40
2023-02-06T15:18:18.689Z,6.30
2023-02-06T15:20:51.964Z,5.47
2023-02-06T15:23:39.779Z,5.97
2023-02-06T15:26:27.506Z,5.93
2023-02-06T15:28:59.081Z,6.57
2023-02-06T15:31:27.458Z,5.47
2023-02-06T15:33:57.802Z,5.55
2023-02-06T15:36:39.371Z,5.53
2023-02-06T16:38:25.076Z,5.57
2023-02-06T16:41:59.020Z,5.82
2023-02-06T19:20:32.185Z,6.28
2023-02-06T19:22:58.783Z,5.93
2023-02-06T19:25:25.426Z,6.95
2023-02-06T19:27:52.073Z,7.13
2023-02-06T19:30:18.727Z,6.78
2023-02-06T19:32:45.527Z,7.47
2023-02-06T19:35:12.140Z,8.00
2023-02-06T19:37:38.963Z,7.78
2023-02-06T19:40:05.862Z,7.15
2023-02-06T19:42:32.351Z,6.65
2023-02-06T19:44:58.884Z,5.88
2023-02-06T19:47:25.453Z,5.65
2023-02-06T19:49:54.904Z,4.70
2023-02-06T19:52:21.426Z,5.15
2023-02-06T19:54:48.051Z,4.75
2023-02-06T19:57:16.130Z,5.10
2023-02-06T19:59:42.762Z,4.95
2023-02-06T20:02:12.836Z,5.30
2023-02-06T20:04:39.905Z,4.22
2023-02-06T20:07:06.670Z,4.97
2023-02-06T20:09:33.685Z,6.43
2023-02-06T20:12:00.281Z,4.75
2023-02-06T20:14:28.229Z,4.88
2023-02-06T20:16:55.172Z,5.68
2023-02-06T20:19:27.947Z,6.10
2023-02-06T20:21:58.518Z,6.60
2023-02-06T20:24:28.112Z,5.53
2023-02-06T20:26:57.969Z,5.57
2023-02-06T20:29:37.462Z,6.55
2023-02-06T20:32:06.214Z,6.47
2023-02-06T20:34:34.454Z,7.32
2023-02-06T20:37:01.386Z,6.65
2023-02-06T20:39:28.728Z,6.00
2023-02-06T20:41:55.452Z,6.72
2023-02-06T20:44:21.961Z,6.65
2023-02-06T20:46:48.594Z,8.30
2023-02-06T20:49:24.509Z,6.13
2023-02-06T20:51:51.950Z,6.82
2023-02-06T20:54:19.808Z,6.35
2023-02-06T20:56:46.802Z,5.90
2023-02-06T20:59:15.694Z,7.18
2023-02-06T21:01:42.423Z,6.30
2023-02-06T21:04:11.250Z,7.20
2023-02-06T21:06:40.139Z,6.72
2023-02-06T21:09:08.156Z,6.95
2023-02-06T21:11:46.275Z,6.43
2023-02-06T21:14:13.849Z,6.50
2023-02-06T21:16:41.055Z,6.00
2023-02-06T21:19:09.750Z,7.00
2023-02-06T21:21:37.521Z,6.95
2023-02-06T21:24:05.876Z,7.13
2023-02-06T21:26:33.075Z,6.80
2023-02-06T21:29:02.207Z,7.28
2023-02-06T21:31:37.332Z,7.47
2023-02-06T21:34:09.088Z,8.38
2023-02-06T21:36:37.451Z,8.48
2023-02-06T21:39:04.309Z,8.60
2023-02-06T21:41:30.866Z,7.75
2023-02-06T21:43:57.819Z,8.65
2023-02-06T21:46:24.513Z,8.27
2023-02-06T21:48:52.969Z,6.95
2023-02-06T21:51:20.897Z,7.90
2023-02-06T21:53:47.627Z,7.88
2023-02-06T21:56:20.936Z,6.68
2023-02-06T21:58:49.174Z,6.53
2023-02-06T22:01:18.124Z,7.53
2023-02-06T22:03:46.055Z,6.97
2023-02-06T22:06:13.645Z,7.95
2023-02-06T22:08:45.140Z,7.35
2023-02-06T22:11:21.038Z,9.55
2023-02-06T22:13:48.369Z,8.05
2023-02-06T22:16:17.710Z,8.57
2023-02-06T22:18:44.245Z,9.00
2023-02-06T22:21:13.298Z,9.15
2023-02-06T22:23:41.139Z,9.52
2023-02-06T22:26:10.179Z,9.30
2023-02-06T22:28:37.237Z,9.40
2023-02-06T22:31:18.168Z,9.50
2023-02-06T22:33:45.132Z,9.05
2023-02-06T22:36:14.481Z,9.52
2023-02-06T22:38:41.968Z,9.75
2023-02-06T22:41:12.459Z,9.27
2023-02-06T22:43:39.584Z,9.60
2023-02-06T22:46:07.251Z,10.25
2023-02-06T22:48:34.069Z,9.48
2023-02-06T22:51:07.871Z,8.95
2023-02-06T22:53:35.049Z,9.30
2023-02-06T22:56:26.928Z,9.90
2023-02-06T22:58:54.794Z,9.05
2023-02-06T23:01:24.611Z,9.40
2023-02-06T23:03:52.947Z,9.25
2023-02-06T23:06:20.126Z,9.63
2023-02-06T23:08:47.243Z,9.68
2023-02-06T23:11:14.161Z,10.15
2023-02-06T23:13:43.367Z,9.43
2023-02-06T23:16:11.146Z,9.38
2023-02-06T23:18:38.178Z,10.70
2023-02-06T23:21:08.124Z,9.82
2023-02-06T23:23:34.717Z,10.50
2023-02-06T23:26:01.352Z,11.38
2023-02-06T23:28:28.486Z,10.73
2023-02-06T23:30:55.624Z,10.07
2023-02-06T23:33:22.792Z,10.00
2023-02-06T23:35:49.513Z,9.00
2023-02-06T23:38:16.164Z,9.88
2023-02-06T23:40:42.884Z,9.90
2023-02-06T23:43:10.276Z,9.85
2023-02-06T23:45:37.461Z,9.13
2023-02-06T23:48:04.352Z,9.27
2023-02-06T23:50:30.904Z,9.63
2023-02-06T23:52:57.423Z,9.32
2023-02-06T23:55:27.884Z,9.15
2023-02-06T23:57:54.565Z,9.32
